sensor_id;sensor_type;location;lat;lon;timestamp;pressure;altitude;pressure_sealevel;temperature;humidity
71194;BME280;58903;47.210;8.618;2023-08-06T00:02:12;93754.66;;;29.14;40.55
71194;BME280;58903;47.210;8.618;2023-08-06T00:04:38;93754.47;;;29.12;40.16
71194;BME280;58903;47.210;8.618;2023-08-06T00:07:04;93755.56;;;29.08;40.04
71194;BME280;58903;47.210;8.618;2023-08-06T00:09:31;93750.41;;;29.13;40.13
71194;BME280;58903;47.210;8.618;2023-08-06T00:11:58;93752.25;;;29.10;40.14
71194;BME280;58903;47.210;8.618;2023-08-06T00:14:24;93752.97;;;29.10;40.99
71194;BME280;58903;47.210;8.618;2023-08-06T00:16:50;93744.50;;;29.08;40.19
71194;BME280;58903;47.210;8.618;2023-08-06T00:19:18;93743.03;;;29.07;40.60
71194;BME280;58903;47.210;8.618;2023-08-06T00:21:48;93731.94;;;29.07;40.43
71194;BME280;58903;47.210;8.618;2023-08-06T00:24:16;93735.81;;;29.04;40.58
71194;BME280;58903;47.210;8.618;2023-08-06T00:26:43;93727.88;;;29.01;40.73
71194;BME280;58903;47.210;8.618;2023-08-06T00:29:10;93730.44;;;28.99;40.64
71194;BME280;58903;47.210;8.618;2023-08-06T00:31:36;93729.91;;;29.08;40.71
71194;BME280;58903;47.210;8.618;2023-08-06T00:34:02;93723.78;;;29.02;40.02
71194;BME280;58903;47.210;8.618;2023-08-06T00:36:28;93715.84;;;28.98;40.49
71194;BME280;58903;47.210;8.618;2023-08-06T00:38:54;93716.78;;;29.01;40.97
71194;BME280;58903;47.210;8.618;2023-08-06T00:41:22;93713.66;;;29.04;40.85
71194;BME280;58903;47.210;8.618;2023-08-06T00:43:48;93713.09;;;29.06;40.39
71194;BME280;58903;47.210;8.618;2023-08-06T00:46:14;93704.06;;;29.05;40.22
71194;BME280;58903;47.210;8.618;2023-08-06T00:48:43;93691.31;;;29.02;40.54
71194;BME280;58903;47.210;8.618;2023-08-06T00:51:10;93697.59;;;29.03;39.95
71194;BME280;58903;47.210;8.618;2023-08-06T00:53:40;93698.13;;;29.01;40.55
71194;BME280;58903;47.210;8.618;2023-08-06T00:56:09;93705.72;;;29.01;40.47
71194;BME280;58903;47.210;8.618;2023-08-06T00:58:39;93700.72;;;28.99;40.20
71194;BME280;58903;47.210;8.618;2023-08-06T01:01:05;93692.03;;;28.95;40.86
71194;BME280;58903;47.210;8.618;2023-08-06T01:03:31;93702.38;;;29.02;40.65
71194;BME280;58903;47.210;8.618;2023-08-06T01:05:58;93700.91;;;29.01;40.43
71194;BME280;58903;47.210;8.618;2023-08-06T01:14:18;93707.75;;;29.00;40.40
71194;BME280;58903;47.210;8.618;2023-08-06T01:16:50;93697.94;;;28.99;40.99
71194;BME280;58903;47.210;8.618;2023-08-06T01:19:20;93700.91;;;29.01;41.10
71194;BME280;58903;47.210;8.618;2023-08-06T01:21:47;93700.72;;;28.99;40.58
71194;BME280;58903;47.210;8.618;2023-08-06T01:24:13;93700.53;;;28.97;40.48
71194;BME280;58903;47.210;8.618;2023-08-06T01:29:43;93685.03;;;29.02;40.40
71194;BME280;58903;47.210;8.618;2023-08-06T01:32:14;93687.97;;;28.96;40.27
71194;BME280;58903;47.210;8.618;2023-08-06T01:34:43;93687.59;;;28.92;40.02
71194;BME280;58903;47.210;8.618;2023-08-06T01:37:11;93685.97;;;28.97;40.52
71194;BME280;58903;47.210;8.618;2023-08-06T01:39:40;93686.13;;;28.91;41.08
71194;BME280;58903;47.210;8.618;2023-08-06T01:42:11;93685.75;;;28.95;40.60
71194;BME280;58903;47.210;8.618;2023-08-06T01:44:39;93692.03;;;28.95;40.74
71194;BME280;58903;47.210;8.618;2023-08-06T01:47:10;93684.28;;;28.94;40.28
71194;BME280;58903;47.210;8.618;2023-08-06T01:49:36;93677.81;;;28.91;40.51
71194;BME280;58903;47.210;8.618;2023-08-06T01:52:06;93685.75;;;28.95;40.34
71194;BME280;58903;47.210;8.618;2023-08-06T01:54:34;93672.47;;;28.93;40.22
71194;BME280;58903;47.210;8.618;2023-08-06T01:57:01;93672.47;;;28.93;40.09
71194;BME280;58903;47.210;8.618;2023-08-06T01:59:27;93676.53;;;28.92;40.76
71194;BME280;58903;47.210;8.618;2023-08-06T02:01:53;93665.81;;;28.89;40.11
71194;BME280;58903;47.210;8.618;2023-08-06T02:04:19;93663.03;;;28.89;40.54
71194;BME280;58903;47.210;8.618;2023-08-06T02:06:45;93655.84;;;28.93;40.58
71194;BME280;58903;47.210;8.618;2023-08-06T02:09:12;93638.31;;;28.91;41.18
71194;BME280;58903;47.210;8.618;2023-08-06T02:11:43;93628.69;;;28.84;40.12
71194;BME280;58903;47.210;8.618;2023-08-06T02:14:09;93628.50;;;28.82;39.82
71194;BME280;58903;47.210;8.618;2023-08-06T02:16:38;93627.59;;;28.87;40.11
71194;BME280;58903;47.210;8.618;2023-08-06T02:19:09;93619.31;;;28.87;40.34
71194;BME280;58903;47.210;8.618;2023-08-06T02:21:37;93620.56;;;28.86;40.36
71194;BME280;58903;47.210;8.618;2023-08-06T02:24:06;93625.41;;;28.86;40.17
71194;BME280;58903;47.210;8.618;2023-08-06T02:26:36;93628.88;;;28.86;40.54
71194;BME280;58903;47.210;8.618;2023-08-06T02:29:04;93622.97;;;28.82;40.91
71194;BME280;58903;47.210;8.618;2023-08-06T02:31:30;93625.22;;;28.84;40.11
71194;BME280;58903;47.210;8.618;2023-08-06T02:33:58;93622.22;;;28.82;40.20
71194;BME280;58903;47.210;8.618;2023-08-06T02:36:25;93631.66;;;28.86;40.87
71194;BME280;58903;47.210;8.618;2023-08-06T02:38:55;93606.38;;;28.82;39.97
71194;BME280;58903;47.210;8.618;2023-08-06T02:41:24;93617.81;;;28.86;40.54
71194;BME280;58903;47.210;8.618;2023-08-06T02:43:50;93616.34;;;28.85;40.47
71194;BME280;58903;47.210;8.618;2023-08-06T02:46:16;93617.09;;;28.86;40.72
71194;BME280;58903;47.210;8.618;2023-08-06T02:48:44;93612.66;;;28.83;40.82
71194;BME280;58903;47.210;8.618;2023-08-06T02:51:10;93604.53;;;28.77;40.27
71194;BME280;58903;47.210;8.618;2023-08-06T02:53:37;93605.09;;;28.83;40.97
71194;BME280;58903;47.210;8.618;2023-08-06T02:56:04;93606.19;;;28.80;40.32
71194;BME280;58903;47.210;8.618;2023-08-06T02:58:31;93609.31;;;28.84;40.89
71194;BME280;58903;47.210;8.618;2023-08-06T03:03:29;93612.47;;;28.81;40.07
71194;BME280;58903;47.210;8.618;2023-08-06T03:05:57;93614.47;;;28.80;40.70
71194;BME280;58903;47.210;8.618;2023-08-06T03:08:23;93613.94;;;28.82;40.25
71194;BME280;58903;47.210;8.618;2023-08-06T03:10:50;93611.16;;;28.82;40.25
71194;BME280;58903;47.210;8.618;2023-08-06T03:13:16;93610.25;;;28.79;40.47
71194;BME280;58903;47.210;8.618;2023-08-06T03:15:43;93611.16;;;28.82;40.21
71194;BME280;58903;47.210;8.618;2023-08-06T03:18:09;93605.63;;;28.82;40.30
71194;BME280;58903;47.210;8.618;2023-08-06T03:20:35;93610.97;;;28.80;40.10
71194;BME280;58903;47.210;8.618;2023-08-06T03:23:01;93596.56;;;28.74;40.40
71194;BME280;58903;47.210;8.618;2023-08-06T03:25:27;93598.59;;;28.73;40.37
71194;BME280;58903;47.210;8.618;2023-08-06T03:27:53;93596.75;;;28.76;40.19
71194;BME280;58903;47.210;8.618;2023-08-06T03:30:21;93597.13;;;28.72;40.43
71194;BME280;58903;47.210;8.618;2023-08-06T03:32:49;93605.25;;;28.78;40.41
71194;BME280;58903;47.210;8.618;2023-08-06T03:35:15;93602.47;;;28.78;40.64
71194;BME280;58903;47.210;8.618;2023-08-06T03:37:43;93611.53;;;28.78;39.84
71194;BME280;58903;47.210;8.618;2023-08-06T03:40:09;93605.81;;;28.76;40.69
71194;BME280;58903;47.210;8.618;2023-08-06T03:42:38;93597.69;;;28.71;40.42
71194;BME280;58903;47.210;8.618;2023-08-06T03:45:04;93603.94;;;28.71;40.59
71194;BME280;58903;47.210;8.618;2023-08-06T03:47:32;93592.50;;;28.67;40.55
71194;BME280;58903;47.210;8.618;2023-08-06T03:50:02;93595.09;;;28.65;40.30
71194;BME280;58903;47.210;8.618;2023-08-06T03:52:28;93591.75;;;28.67;40.14
71194;BME280;58903;47.210;8.618;2023-08-06T03:54:57;93602.47;;;28.70;39.98
71194;BME280;58903;47.210;8.618;2023-08-06T03:57:25;93599.72;;;28.70;40.61
71194;BME280;58903;47.210;8.618;2023-08-06T03:59:51;93603.00;;;28.69;40.64
71194;BME280;58903;47.210;8.618;2023-08-06T04:02:17;93607.28;;;28.70;40.23
71194;BME280;58903;47.210;8.618;2023-08-06T04:04:44;93595.09;;;28.65;40.70
71194;BME280;58903;47.210;8.618;2023-08-06T04:07:10;93599.16;;;28.64;40.23
71194;BME280;58903;47.210;8.618;2023-08-06T04:09:52;93616.31;;;28.70;39.95
71194;BME280;58903;47.210;8.618;2023-08-06T04:12:21;93615.56;;;28.70;39.96
71194;BME280;58903;47.210;8.618;2023-08-06T04:14:48;93602.28;;;28.68;39.79
71194;BME280;58903;47.210;8.618;2023-08-06T04:17:14;93610.03;;;28.62;40.12
71194;BME280;58903;47.210;8.618;2023-08-06T04:19:42;93611.53;;;28.71;39.98
71194;BME280;58903;47.210;8.618;2023-08-06T04:22:08;93612.25;;;28.71;40.73
71194;BME280;58903;47.210;8.618;2023-08-06T04:24:35;93611.53;;;28.71;40.79
71194;BME280;58903;47.210;8.618;2023-08-06T04:27:01;93619.09;;;28.70;40.23
71194;BME280;58903;47.210;8.618;2023-08-06T04:29:31;93621.09;;;28.70;40.00
71194;BME280;58903;47.210;8.618;2023-08-06T04:31:57;93612.81;;;28.62;40.17
71194;BME280;58903;47.210;8.618;2023-08-06T04:34:27;93613.69;;;28.65;40.29
71194;BME280;58903;47.210;8.618;2023-08-06T04:36:55;93617.41;;;28.67;40.23
71194;BME280;58903;47.210;8.618;2023-08-06T04:39:21;93624.63;;;28.70;40.13
71194;BME280;58903;47.210;8.618;2023-08-06T04:41:49;93614.44;;;28.65;40.65
71194;BME280;58903;47.210;8.618;2023-08-06T04:44:15;93622.94;;;28.67;40.53
71194;BME280;58903;47.210;8.618;2023-08-06T04:46:43;93627.38;;;28.70;40.18
71194;BME280;58903;47.210;8.618;2023-08-06T04:49:14;93625.91;;;28.69;40.19
71194;BME280;58903;47.210;8.618;2023-08-06T04:51:40;93631.44;;;28.69;40.29
71194;BME280;58903;47.210;8.618;2023-08-06T04:54:06;93617.59;;;28.62;40.76
71194;BME280;58903;47.210;8.618;2023-08-06T04:56:32;93628.84;;;28.64;40.68
71194;BME280;58903;47.210;8.618;2023-08-06T04:58:59;93633.25;;;28.67;40.60
71194;BME280;58903;47.210;8.618;2023-08-06T05:01:27;93632.88;;;28.63;39.88
71194;BME280;58903;47.210;8.618;2023-08-06T05:03:57;93649.16;;;28.66;40.47
71194;BME280;58903;47.210;8.618;2023-08-06T05:06:25;93669.97;;;28.67;40.55
71194;BME280;58903;47.210;8.618;2023-08-06T05:08:51;93661.31;;;28.63;40.08
71194;BME280;58903;47.210;8.618;2023-08-06T05:11:17;93669.97;;;28.67;40.31
71194;BME280;58903;47.210;8.618;2023-08-06T05:13:44;93675.31;;;28.65;40.13
71194;BME280;58903;47.210;8.618;2023-08-06T05:16:12;93673.47;;;28.60;39.96
71194;BME280;58903;47.210;8.618;2023-08-06T05:18:38;93671.63;;;28.63;40.24
71194;BME280;58903;47.210;8.618;2023-08-06T05:21:08;93669.78;;;28.65;39.80
71194;BME280;58903;47.210;8.618;2023-08-06T05:23:34;93673.88;;;28.64;40.32
71194;BME280;58903;47.210;8.618;2023-08-06T05:26:00;93676.44;;;28.62;39.72
71194;BME280;58903;47.210;8.618;2023-08-06T05:28:28;93684.75;;;28.62;39.98
71194;BME280;58903;47.210;8.618;2023-08-06T05:30:56;93694.50;;;28.63;39.71
71194;BME280;58903;47.210;8.618;2023-08-06T05:33:22;93685.28;;;28.61;39.53
71194;BME280;58903;47.210;8.618;2023-08-06T05:35:49;93697.75;;;28.54;39.76
71194;BME280;58903;47.210;8.618;2023-08-06T05:38:16;93708.91;;;28.62;39.98
71194;BME280;58903;47.210;8.618;2023-08-06T05:40:43;93694.25;;;28.54;40.29
71194;BME280;58903;47.210;8.618;2023-08-06T05:43:09;93706.06;;;28.54;40.37
71194;BME280;58903;47.210;8.618;2023-08-06T05:45:38;93717.72;;;28.60;40.43
71194;BME280;58903;47.210;8.618;2023-08-06T05:48:04;93727.34;;;28.59;40.25
71194;BME280;58903;47.210;8.618;2023-08-06T05:50:32;93733.06;;;28.61;40.14
71194;BME280;58903;47.210;8.618;2023-08-06T05:53:00;93735.63;;;28.59;40.59
71194;BME280;58903;47.210;8.618;2023-08-06T05:55:26;93735.97;;;28.56;40.49
71194;BME280;58903;47.210;8.618;2023-08-06T05:57:52;93745.00;;;28.56;39.83
71194;BME280;58903;47.210;8.618;2023-08-06T06:00:20;93744.50;;;28.58;40.29
71194;BME280;58903;47.210;8.618;2023-08-06T06:02:48;93756.28;;;28.58;40.67
71194;BME280;58903;47.210;8.618;2023-08-06T06:05:14;93760.34;;;28.57;40.59
71194;BME280;58903;47.210;8.618;2023-08-06T06:07:40;93743.53;;;28.55;40.29
71194;BME280;58903;47.210;8.618;2023-08-06T06:10:09;93759.03;;;28.58;40.08
71194;BME280;58903;47.210;8.618;2023-08-06T06:12:35;93749.81;;;28.56;40.31
71194;BME280;58903;47.210;8.618;2023-08-06T06:15:01;93752.56;;;28.56;40.59
71194;BME280;58903;47.210;8.618;2023-08-06T06:17:38;93768.84;;;28.59;40.28
71194;BME280;58903;47.210;8.618;2023-08-06T06:20:07;93760.53;;;28.59;40.60
71194;BME280;58903;47.210;8.618;2023-08-06T06:22:33;93754.41;;;28.53;40.34
71194;BME280;58903;47.210;8.618;2023-08-06T06:24:59;93761.28;;;28.60;40.75
71194;BME280;58903;47.210;8.618;2023-08-06T06:27:25;93756.06;;;28.56;40.43
71194;BME280;58903;47.210;8.618;2023-08-06T06:29:51;93767.53;;;28.60;40.22
71194;BME280;58903;47.210;8.618;2023-08-06T06:32:21;93779.34;;;28.61;39.79
71194;BME280;58903;47.210;8.618;2023-08-06T06:34:47;93779.91;;;28.59;40.24
71194;BME280;58903;47.210;8.618;2023-08-06T06:37:12;93769.38;;;28.58;40.19
71194;BME280;58903;47.210;8.618;2023-08-06T06:39:39;93779.34;;;28.61;40.37
71194;BME280;58903;47.210;8.618;2023-08-06T06:42:07;93781.59;;;28.62;39.85
71194;BME280;58903;47.210;8.618;2023-08-06T06:44:33;93780.09;;;28.61;39.87
71194;BME280;58903;47.210;8.618;2023-08-06T06:47:02;93783.59;;;28.62;39.92
71194;BME280;58903;47.210;8.618;2023-08-06T06:49:29;93788.41;;;28.61;40.26
71194;BME280;58903;47.210;8.618;2023-08-06T06:51:56;93799.47;;;28.61;40.72
71194;BME280;58903;47.210;8.618;2023-08-06T06:54:23;93796.69;;;28.61;40.58
71194;BME280;58903;47.210;8.618;2023-08-06T06:56:49;93792.56;;;28.55;40.54
71194;BME280;58903;47.210;8.618;2023-08-06T06:59:15;93798.84;;;28.55;40.05
71194;BME280;58903;47.210;8.618;2023-08-06T07:01:43;93798.53;;;28.59;40.40
71194;BME280;58903;47.210;8.618;2023-08-06T07:04:12;93802.44;;;28.63;40.33
71194;BME280;58903;47.210;8.618;2023-08-06T07:06:38;93800.03;;;28.60;39.86
71194;BME280;58903;47.210;8.618;2023-08-06T07:09:07;93797.84;;;28.66;40.00
71194;BME280;58903;47.210;8.618;2023-08-06T07:11:33;93793.97;;;28.69;40.55
71194;BME280;58903;47.210;8.618;2023-08-06T07:13:59;93802.06;;;28.67;40.15
71194;BME280;58903;47.210;8.618;2023-08-06T07:16:26;93791.16;;;28.61;40.11
71194;BME280;58903;47.210;8.618;2023-08-06T07:18:54;93794.31;;;28.65;40.32
71194;BME280;58903;47.210;8.618;2023-08-06T07:21:20;93800.03;;;28.67;40.44
71194;BME280;58903;47.210;8.618;2023-08-06T07:23:47;93800.59;;;28.66;40.11
71194;BME280;58903;47.210;8.618;2023-08-06T07:26:16;93797.09;;;28.65;40.27
71194;BME280;58903;47.210;8.618;2023-08-06T07:28:42;93802.63;;;28.65;40.95
71194;BME280;58903;47.210;8.618;2023-08-06T07:31:09;93810.53;;;28.61;40.46
71194;BME280;58903;47.210;8.618;2023-08-06T07:33:35;93807.97;;;28.63;40.80
71194;BME280;58903;47.210;8.618;2023-08-06T07:36:08;93800.75;;;28.60;40.83
71194;BME280;58903;47.210;8.618;2023-08-06T07:38:36;93814.06;;;28.62;40.65
71194;BME280;58903;47.210;8.618;2023-08-06T07:41:03;93807.38;;;28.57;40.79
71194;BME280;58903;47.210;8.618;2023-08-06T07:43:31;93812.22;;;28.64;40.46
71194;BME280;58903;47.210;8.618;2023-08-06T07:46:01;93820.72;;;28.66;40.91
71194;BME280;58903;47.210;8.618;2023-08-06T07:48:29;93819.97;;;28.66;40.85
71194;BME280;58903;47.210;8.618;2023-08-06T07:50:56;93819.03;;;28.63;40.34
71194;BME280;58903;47.210;8.618;2023-08-06T07:53:23;93817.16;;;28.58;40.45
71194;BME280;58903;47.210;8.618;2023-08-06T07:55:51;93818.44;;;28.57;40.61
71194;BME280;58903;47.210;8.618;2023-08-06T07:58:18;93837.66;;;28.63;40.27
71194;BME280;58903;47.210;8.618;2023-08-06T08:00:45;93846.69;;;28.63;40.89
71194;BME280;58903;47.210;8.618;2023-08-06T08:03:12;93843.19;;;28.63;40.38
71194;BME280;58903;47.210;8.618;2023-08-06T08:05:42;93845.97;;;28.63;40.27
71194;BME280;58903;47.210;8.618;2023-08-06T08:08:09;93847.25;;;28.62;40.66
71194;BME280;58903;47.210;8.618;2023-08-06T08:10:35;93845.00;;;28.60;40.25
71194;BME280;58903;47.210;8.618;2023-08-06T08:13:05;93852.91;;;28.56;40.66
71194;BME280;58903;47.210;8.618;2023-08-06T08:15:32;93862.38;;;28.61;40.39
71194;BME280;58903;47.210;8.618;2023-08-06T08:18:00;93864.19;;;28.58;40.45
71194;BME280;58903;47.210;8.618;2023-08-06T08:20:26;93872.69;;;28.60;40.56
71194;BME280;58903;47.210;8.618;2023-08-06T08:23:00;93881.22;;;28.62;40.43
71194;BME280;58903;47.210;8.618;2023-08-06T08:25:27;93867.69;;;28.59;40.36
71194;BME280;58903;47.210;8.618;2023-08-06T08:27:55;93872.69;;;28.60;40.10
71194;BME280;58903;47.210;8.618;2023-08-06T08:30:21;93869.19;;;28.60;39.96
71194;BME280;58903;47.210;8.618;2023-08-06T08:32:48;93862.72;;;28.57;40.66
71194;BME280;58903;47.210;8.618;2023-08-06T08:35:15;93855.16;;;28.58;40.01
71194;BME280;58903;47.210;8.618;2023-08-06T08:37:43;93845.00;;;28.60;40.51
71194;BME280;58903;47.210;8.618;2023-08-06T08:40:13;93857.38;;;28.59;39.88
71194;BME280;58903;47.210;8.618;2023-08-06T08:42:39;93857.19;;;28.57;40.58
71194;BME280;58903;47.210;8.618;2023-08-06T08:45:11;93863.66;;;28.60;40.60
71194;BME280;58903;47.210;8.618;2023-08-06T08:47:45;93865.78;;;28.54;40.30
71194;BME280;58903;47.210;8.618;2023-08-06T08:50:13;93876.75;;;28.59;40.42
71194;BME280;58903;47.210;8.618;2023-08-06T08:52:42;93876.56;;;28.57;40.42
71194;BME280;58903;47.210;8.618;2023-08-06T08:55:12;93870.25;;;28.57;40.72
71194;BME280;58903;47.210;8.618;2023-08-06T08:57:39;93863.38;;;28.50;40.83
71194;BME280;58903;47.210;8.618;2023-08-06T09:00:06;93864.50;;;28.55;41.12
71194;BME280;58903;47.210;8.618;2023-08-06T09:02:33;93865.50;;;28.57;40.36
71194;BME280;58903;47.210;8.618;2023-08-06T09:05:03;93868.25;;;28.57;40.96
71194;BME280;58903;47.210;8.618;2023-08-06T09:07:42;93870.78;;;28.55;40.51
71194;BME280;58903;47.210;8.618;2023-08-06T09:10:14;93871.22;;;28.59;40.38
71194;BME280;58903;47.210;8.618;2023-08-06T09:12:42;93872.81;;;28.55;40.47
71194;BME280;58903;47.210;8.618;2023-08-06T09:15:08;93876.56;;;28.57;40.22
71194;BME280;58903;47.210;8.618;2023-08-06T09:17:36;93871.78;;;28.58;40.74
71194;BME280;58903;47.210;8.618;2023-08-06T09:20:12;93866.72;;;28.56;40.20
71194;BME280;58903;47.210;8.618;2023-08-06T09:22:41;93865.25;;;28.55;40.69
71194;BME280;58903;47.210;8.618;2023-08-06T09:25:08;93870.78;;;28.55;40.24
71194;BME280;58903;47.210;8.618;2023-08-06T09:27:41;93869.50;;;28.56;41.05
71194;BME280;58903;47.210;8.618;2023-08-06T09:30:29;93878.53;;;28.57;40.23
71194;BME280;58903;47.210;8.618;2023-08-06T09:32:59;93876.13;;;28.53;40.18
71194;BME280;58903;47.210;8.618;2023-08-06T09:35:30;93888.88;;;28.56;40.64
71194;BME280;58903;47.210;8.618;2023-08-06T09:38:19;93895.50;;;28.53;40.55
71194;BME280;58903;47.210;8.618;2023-08-06T09:40:49;93887.19;;;28.53;40.78
71194;BME280;58903;47.210;8.618;2023-08-06T09:43:19;93895.63;;;28.48;40.82
71194;BME280;58903;47.210;8.618;2023-08-06T09:45:46;93894.88;;;28.47;40.19
71194;BME280;58903;47.210;8.618;2023-08-06T09:48:16;93890.44;;;28.44;40.56
71194;BME280;58903;47.210;8.618;2023-08-06T09:50:42;93894.84;;;28.40;40.72
71194;BME280;58903;47.210;8.618;2023-08-06T09:53:11;93912.03;;;28.46;41.04
71194;BME280;58903;47.210;8.618;2023-08-06T09:55:39;93905.53;;;28.43;41.22
71194;BME280;58903;47.210;8.618;2023-08-06T09:58:06;93905.75;;;28.45;40.97
71194;BME280;58903;47.210;8.618;2023-08-06T10:00:34;93900.00;;;28.43;41.09
71194;BME280;58903;47.210;8.618;2023-08-06T10:03:01;93903.88;;;28.40;41.44
71194;BME280;58903;47.210;8.618;2023-08-06T10:05:27;93893.13;;;28.36;40.82
71194;BME280;58903;47.210;8.618;2023-08-06T10:07:55;93914.94;;;28.40;41.32
71194;BME280;58903;47.210;8.618;2023-08-06T10:10:25;93916.09;;;28.45;41.46
71194;BME280;58903;47.210;8.618;2023-08-06T10:12:56;93916.09;;;28.45;40.69
71194;BME280;58903;47.210;8.618;2023-08-06T10:15:30;93902.38;;;28.39;41.45
71194;BME280;58903;47.210;8.618;2023-08-06T10:18:26;93912.03;;;28.46;41.19
71194;BME280;58903;47.210;8.618;2023-08-06T10:20:53;93922.91;;;28.44;41.03
71194;BME280;58903;47.210;8.618;2023-08-06T10:23:33;93909.22;;;28.38;41.86
71194;BME280;58903;47.210;8.618;2023-08-06T10:26:01;93917.72;;;28.40;42.07
71194;BME280;58903;47.210;8.618;2023-08-06T10:28:39;93923.44;;;28.42;42.24
71194;BME280;58903;47.210;8.618;2023-08-06T10:31:08;93931.94;;;28.44;42.96
71194;BME280;58903;47.210;8.618;2023-08-06T10:33:43;93928.03;;;28.40;42.97
71194;BME280;58903;47.210;8.618;2023-08-06T10:36:15;93924.50;;;28.39;42.79
71194;BME280;58903;47.210;8.618;2023-08-06T10:41:29;93934.63;;;28.36;43.00
71194;BME280;58903;47.210;8.618;2023-08-06T10:44:09;93937.59;;;28.38;44.21
71194;BME280;58903;47.210;8.618;2023-08-06T10:46:37;93946.66;;;28.39;43.38
71194;BME280;58903;47.210;8.618;2023-08-06T10:49:04;93938.16;;;28.37;43.32
71194;BME280;58903;47.210;8.618;2023-08-06T10:51:30;93936.44;;;28.34;43.36
71194;BME280;58903;47.210;8.618;2023-08-06T10:53:59;93933.69;;;28.34;42.94
71194;BME280;58903;47.210;8.618;2023-08-06T10:56:26;93943.47;;;28.35;42.58
71194;BME280;58903;47.210;8.618;2023-08-06T10:58:59;93939.66;;;28.38;43.15
71194;BME280;58903;47.210;8.618;2023-08-06T11:01:28;93920.41;;;28.32;42.90
71194;BME280;58903;47.210;8.618;2023-08-06T11:03:56;93929.09;;;28.36;43.00
71194;BME280;58903;47.210;8.618;2023-08-06T11:06:23;93919.84;;;28.34;42.98
71194;BME280;58903;47.210;8.618;2023-08-06T11:08:53;93924.50;;;28.39;42.99
71194;BME280;58903;47.210;8.618;2023-08-06T11:11:23;93927.09;;;28.37;43.10
71194;BME280;58903;47.210;8.618;2023-08-06T11:13:51;93914.19;;;28.40;42.33
71194;BME280;58903;47.210;8.618;2023-08-06T11:16:19;93924.91;;;28.43;42.15
71194;BME280;58903;47.210;8.618;2023-08-06T11:18:47;93929.19;;;28.44;42.86
71194;BME280;58903;47.210;8.618;2023-08-06T11:21:13;93925.47;;;28.42;42.46
71194;BME280;58903;47.210;8.618;2023-08-06T11:23:41;93928.97;;;28.42;43.13
71194;BME280;58903;47.210;8.618;2023-08-06T11:26:08;93933.75;;;28.42;42.40
71194;BME280;58903;47.210;8.618;2023-08-06T11:28:36;93927.28;;;28.39;42.74
71194;BME280;58903;47.210;8.618;2023-08-06T11:31:02;93930.25;;;28.41;42.92
71194;BME280;58903;47.210;8.618;2023-08-06T11:33:29;93928.22;;;28.42;43.06
71194;BME280;58903;47.210;8.618;2023-08-06T11:35:59;93931.94;;;28.44;42.65
71194;BME280;58903;47.210;8.618;2023-08-06T11:38:30;93951.63;;;28.41;42.77
71194;BME280;58903;47.210;8.618;2023-08-06T11:40:56;93944.44;;;28.38;42.94
71194;BME280;58903;47.210;8.618;2023-08-06T11:43:26;93936.31;;;28.40;43.12
71194;BME280;58903;47.210;8.618;2023-08-06T11:45:52;93937.78;;;28.41;42.81
71194;BME280;58903;47.210;8.618;2023-08-06T11:48:20;93943.13;;;28.38;42.70
71194;BME280;58903;47.210;8.618;2023-08-06T11:50:54;93952.97;;;28.47;42.62
71194;BME280;58903;47.210;8.618;2023-08-06T11:53:30;93953.19;;;28.49;42.23
71194;BME280;58903;47.210;8.618;2023-08-06T11:56:00;93940.84;;;28.50;41.64
71194;BME280;58903;47.210;8.618;2023-08-06T11:58:31;93951.56;;;28.54;42.84
71194;BME280;58903;47.210;8.618;2023-08-06T12:01:00;93947.72;;;28.57;41.91
71194;BME280;58903;47.210;8.618;2023-08-06T12:03:28;93942.72;;;28.55;42.52
71194;BME280;58903;47.210;8.618;2023-08-06T12:05:57;93954.44;;;28.61;41.97
71194;BME280;58903;47.210;8.618;2023-08-06T12:08:26;93962.72;;;28.61;42.17
71194;BME280;58903;47.210;8.618;2023-08-06T12:10:53;93947.31;;;28.53;42.10
71194;BME280;58903;47.210;8.618;2023-08-06T12:13:19;93944.00;;;28.54;42.19
71194;BME280;58903;47.210;8.618;2023-08-06T12:15:47;93955.69;;;28.60;41.77
71194;BME280;58903;47.210;8.618;2023-08-06T12:18:13;93950.72;;;28.59;41.43
71194;BME280;58903;47.210;8.618;2023-08-06T12:20:41;93954.56;;;28.56;41.90
71194;BME280;58903;47.210;8.618;2023-08-06T12:23:08;93987.00;;;28.55;41.96
71194;BME280;58903;47.210;8.618;2023-08-06T12:25:35;94000.63;;;28.53;41.64
71194;BME280;58903;47.210;8.618;2023-08-06T12:28:03;93998.06;;;28.55;41.65
71194;BME280;58903;47.210;8.618;2023-08-06T12:30:31;94002.84;;;28.55;41.38
71194;BME280;58903;47.210;8.618;2023-08-06T12:33:00;93984.75;;;28.54;41.71
71194;BME280;58903;47.210;8.618;2023-08-06T12:35:26;93996.06;;;28.56;41.37
71194;BME280;58903;47.210;8.618;2023-08-06T12:37:52;93996.56;;;28.54;41.60
71194;BME280;58903;47.210;8.618;2023-08-06T12:40:23;93989.88;;;28.50;41.77
71194;BME280;58903;47.210;8.618;2023-08-06T12:42:50;94001.91;;;28.52;41.60
71194;BME280;58903;47.210;8.618;2023-08-06T12:45:19;93997.47;;;28.49;41.34
71194;BME280;58903;47.210;8.618;2023-08-06T12:47:47;94014.47;;;28.53;41.33
71194;BME280;58903;47.210;8.618;2023-08-06T12:50:18;93997.66;;;28.51;40.72
71194;BME280;58903;47.210;8.618;2023-08-06T12:52:46;94010.22;;;28.52;41.23
71194;BME280;58903;47.210;8.618;2023-08-06T12:55:14;93996.91;;;28.51;41.71
71194;BME280;58903;47.210;8.618;2023-08-06T12:57:41;93996.16;;;28.50;42.06
71194;BME280;58903;47.210;8.618;2023-08-06T13:00:07;93993.00;;;28.46;41.43
71194;BME280;58903;47.210;8.618;2023-08-06T13:02:33;94002.66;;;28.53;41.14
71194;BME280;58903;47.210;8.618;2023-08-06T13:04:59;94000.00;;;28.47;41.20
71194;BME280;58903;47.210;8.618;2023-08-06T13:07:34;93998.41;;;28.52;41.24
71194;BME280;58903;47.210;8.618;2023-08-06T13:10:00;93993.22;;;28.48;41.04
71194;BME280;58903;47.210;8.618;2023-08-06T13:12:26;93984.50;;;28.44;41.46
71194;BME280;58903;47.210;8.618;2023-08-06T13:14:53;94001.16;;;28.52;40.92
71194;BME280;58903;47.210;8.618;2023-08-06T13:17:23;94000.25;;;28.49;41.45
71194;BME280;58903;47.210;8.618;2023-08-06T13:19:51;94015.00;;;28.52;40.95